sensor_id;sensor_type;location;lat;lon;timestamp;pressure;altitude;pressure_sealevel;temperature;humidity
58919;BME280;44704;50.122;19.932;2022-12-18T00:01:29;99801.22;;;-5.10;89.80
58919;BME280;44704;50.122;19.932;2022-12-18T00:03:57;99805.41;;;-5.09;89.75
58919;BME280;44704;50.122;19.932;2022-12-18T00:06:30;99809.64;;;-5.09;89.53
58919;BME280;44704;50.122;19.932;2022-12-18T00:08:57;99814.52;;;-5.08;89.52
58919;BME280;44704;50.122;19.932;2022-12-18T00:11:28;99816.08;;;-5.07;89.71
58919;BME280;44704;50.122;19.932;2022-12-18T00:13:59;99817.88;;;-5.06;89.79
58919;BME280;44704;50.122;19.932;2022-12-18T00:16:28;99821.40;;;-5.03;89.52
58919;BME280;44704;50.122;19.932;2022-12-18T00:18:58;99821.42;;;-5.01;89.46
58919;BME280;44704;50.122;19.932;2022-12-18T00:21:28;99829.48;;;-4.99;89.47
58919;BME280;44704;50.122;19.932;2022-12-18T00:23:56;99837.52;;;-5.00;88.76
58919;BME280;44704;50.122;19.932;2022-12-18T00:26:29;99844.15;;;-5.02;89.29
58919;BME280;44704;50.122;19.932;2022-12-18T00:29:15;99848.67;;;-5.08;88.12
58919;BME280;44704;50.122;19.932;2022-12-18T00:31:43;99853.39;;;-5.14;87.98
58919;BME280;44704;50.122;19.932;2022-12-18T00:34:12;99848.42;;;-5.19;88.26
58919;BME280;44704;50.122;19.932;2022-12-18T00:36:41;99847.13;;;-5.23;88.32
58919;BME280;44704;50.122;19.932;2022-12-18T00:39:09;99846.73;;;-5.28;88.38
58919;BME280;44704;50.122;19.932;2022-12-18T00:41:37;99850.73;;;-5.31;87.74
58919;BME280;44704;50.122;19.932;2022-12-18T00:44:23;99855.29;;;-5.39;87.42
58919;BME280;44704;50.122;19.932;2022-12-18T00:46:52;99851.88;;;-5.45;86.61
58919;BME280;44704;50.122;19.932;2022-12-18T00:49:20;99857.86;;;-5.50;86.75
58919;BME280;44704;50.122;19.932;2022-12-18T00:51:47;99864.27;;;-5.56;87.18
58919;BME280;44704;50.122;19.932;2022-12-18T00:54:15;99869.95;;;-5.58;86.87
58919;BME280;44704;50.122;19.932;2022-12-18T00:56:43;99873.30;;;-5.61;87.10
58919;BME280;44704;50.122;19.932;2022-12-18T00:59:10;99876.11;;;-5.63;87.51
58919;BME280;44704;50.122;19.932;2022-12-18T01:01:40;99877.09;;;-5.64;87.45
58919;BME280;44704;50.122;19.932;2022-12-18T01:04:07;99877.10;;;-5.64;87.22
58919;BME280;44704;50.122;19.932;2022-12-18T01:06:34;99878.27;;;-5.64;87.96
58919;BME280;44704;50.122;19.932;2022-12-18T01:09:02;99886.88;;;-5.63;87.97
58919;BME280;44704;50.122;19.932;2022-12-18T01:11:30;99891.08;;;-5.62;87.96
58919;BME280;44704;50.122;19.932;2022-12-18T01:13:57;99897.27;;;-5.62;87.93
58919;BME280;44704;50.122;19.932;2022-12-18T01:16:23;99896.60;;;-5.63;87.64
58919;BME280;44704;50.122;19.932;2022-12-18T01:18:52;99903.48;;;-5.62;87.38
58919;BME280;44704;50.122;19.932;2022-12-18T01:21:21;99902.79;;;-5.62;87.73
58919;BME280;44704;50.122;19.932;2022-12-18T01:23:53;99906.11;;;-5.62;87.87
58919;BME280;44704;50.122;19.932;2022-12-18T01:26:22;99910.44;;;-5.61;87.75
58919;BME280;44704;50.122;19.932;2022-12-18T01:28:51;99911.15;;;-5.58;87.80
58919;BME280;44704;50.122;19.932;2022-12-18T01:31:24;99911.50;;;-5.56;87.60
58919;BME280;44704;50.122;19.932;2022-12-18T01:33:52;99910.92;;;-5.53;87.16
58919;BME280;44704;50.122;19.932;2022-12-18T01:36:28;99918.02;;;-5.49;87.65
58919;BME280;44704;50.122;19.932;2022-12-18T01:39:04;99916.54;;;-5.46;87.73
58919;BME280;44704;50.122;19.932;2022-12-18T01:41:32;99914.21;;;-5.44;87.49
58919;BME280;44704;50.122;19.932;2022-12-18T01:50:11;99919.17;;;-5.38;87.21
58919;BME280;44704;50.122;19.932;2022-12-18T01:52:42;99917.24;;;-5.39;87.29
58919;BME280;44704;50.122;19.932;2022-12-18T01:55:11;99917.05;;;-5.38;87.09
58919;BME280;44704;50.122;19.932;2022-12-18T01:57:39;99925.84;;;-5.38;86.86
58919;BME280;44704;50.122;19.932;2022-12-18T02:00:13;99928.00;;;-5.38;86.57
58919;BME280;44704;50.122;19.932;2022-12-18T02:02:41;99931.92;;;-5.39;86.53
58919;BME280;44704;50.122;19.932;2022-12-18T02:05:11;99937.44;;;-5.39;86.52
58919;BME280;44704;50.122;19.932;2022-12-18T02:07:49;99936.93;;;-5.39;86.96
58919;BME280;44704;50.122;19.932;2022-12-18T02:13:02;99950.09;;;-5.38;86.41
58919;BME280;44704;50.122;19.932;2022-12-18T02:18:08;99953.04;;;-5.37;86.29
58919;BME280;44704;50.122;19.932;2022-12-18T02:26:36;99962.55;;;-5.34;86.38
58919;BME280;44704;50.122;19.932;2022-12-18T02:29:12;99962.27;;;-5.35;86.36
58919;BME280;44704;50.122;19.932;2022-12-18T02:31:44;99970.97;;;-5.35;86.01
58919;BME280;44704;50.122;19.932;2022-12-18T02:34:15;99971.67;;;-5.35;86.39
58919;BME280;44704;50.122;19.932;2022-12-18T02:36:44;99977.20;;;-5.33;85.96
58919;BME280;44704;50.122;19.932;2022-12-18T02:39:13;99975.76;;;-5.32;86.40
58919;BME280;44704;50.122;19.932;2022-12-18T02:41:50;99980.54;;;-5.30;86.52
58919;BME280;44704;50.122;19.932;2022-12-18T02:44:18;99980.21;;;-5.28;86.47
58919;BME280;44704;50.122;19.932;2022-12-18T02:46:50;99980.21;;;-5.25;86.14
58919;BME280;44704;50.122;19.932;2022-12-18T02:57:35;99995.48;;;-5.16;86.51
58919;BME280;44704;50.122;19.932;2022-12-18T03:00:20;99999.77;;;-5.14;87.10
58919;BME280;44704;50.122;19.932;2022-12-18T03:05:26;100003.42;;;-5.10;87.32
58919;BME280;44704;50.122;19.932;2022-12-18T03:08:03;100007.91;;;-5.08;87.00
58919;BME280;44704;50.122;19.932;2022-12-18T03:10:42;100001.73;;;-5.06;87.23
58919;BME280;44704;50.122;19.932;2022-12-18T03:13:16;100008.64;;;-5.04;86.72
58919;BME280;44704;50.122;19.932;2022-12-18T03:15:52;100016.58;;;-5.01;87.21
58919;BME280;44704;50.122;19.932;2022-12-18T03:18:25;100016.70;;;-5.00;86.70
58919;BME280;44704;50.122;19.932;2022-12-18T03:20:55;100019.15;;;-5.00;86.74
58919;BME280;44704;50.122;19.932;2022-12-18T03:23:29;100014.19;;;-5.00;86.83
58919;BME280;44704;50.122;19.932;2022-12-18T03:26:03;100014.71;;;-4.99;86.82
58919;BME280;44704;50.122;19.932;2022-12-18T03:28:34;100017.80;;;-4.98;87.14
58919;BME280;44704;50.122;19.932;2022-12-18T03:31:05;100020.77;;;-4.95;86.91
58919;BME280;44704;50.122;19.932;2022-12-18T03:33:43;100026.54;;;-4.91;87.39
58919;BME280;44704;50.122;19.932;2022-12-18T03:36:12;100034.05;;;-4.87;87.66
58919;BME280;44704;50.122;19.932;2022-12-18T03:38:40;100038.61;;;-4.84;87.38
58919;BME280;44704;50.122;19.932;2022-12-18T03:41:16;100041.04;;;-4.83;86.92
58919;BME280;44704;50.122;19.932;2022-12-18T03:44:26;100044.90;;;-4.80;87.06
58919;BME280;44704;50.122;19.932;2022-12-18T03:52:51;100048.83;;;-4.81;86.93
58919;BME280;44704;50.122;19.932;2022-12-18T03:55:21;100047.45;;;-4.81;87.22
58919;BME280;44704;50.122;19.932;2022-12-18T03:57:55;100053.61;;;-4.81;87.31
58919;BME280;44704;50.122;19.932;2022-12-18T04:00:24;100056.27;;;-4.83;87.19
58919;BME280;44704;50.122;19.932;2022-12-18T04:03:00;100062.16;;;-4.84;87.34
58919;BME280;44704;50.122;19.932;2022-12-18T04:05:36;100064.35;;;-4.85;87.72
58919;BME280;44704;50.122;19.932;2022-12-18T04:08:04;100063.05;;;-4.86;87.24
58919;BME280;44704;50.122;19.932;2022-12-18T04:10:35;100065.94;;;-4.87;87.22
58919;BME280;44704;50.122;19.932;2022-12-18T04:13:03;100066.64;;;-4.87;87.47
58919;BME280;44704;50.122;19.932;2022-12-18T04:15:33;100075.13;;;-4.89;87.58
58919;BME280;44704;50.122;19.932;2022-12-18T04:18:02;100077.09;;;-4.89;87.32
58919;BME280;44704;50.122;19.932;2022-12-18T04:20:34;100076.58;;;-4.90;87.53
58919;BME280;44704;50.122;19.932;2022-12-18T04:23:01;100078.72;;;-4.90;88.10
58919;BME280;44704;50.122;19.932;2022-12-18T04:25:28;100080.40;;;-4.91;87.66
58919;BME280;44704;50.122;19.932;2022-12-18T04:28:05;100083.80;;;-4.92;87.99
58919;BME280;44704;50.122;19.932;2022-12-18T04:30:33;100081.44;;;-4.91;87.53
58919;BME280;44704;50.122;19.932;2022-12-18T04:33:01;100084.30;;;-4.89;88.35
58919;BME280;44704;50.122;19.932;2022-12-18T04:35:30;100088.98;;;-4.87;87.77
58919;BME280;44704;50.122;19.932;2022-12-18T04:37:57;100096.70;;;-4.86;87.82
58919;BME280;44704;50.122;19.932;2022-12-18T04:40:24;100096.13;;;-4.85;87.86
58919;BME280;44704;50.122;19.932;2022-12-18T04:42:52;100109.23;;;-4.86;88.04
58919;BME280;44704;50.122;19.932;2022-12-18T04:45:19;100112.90;;;-4.87;87.97
58919;BME280;44704;50.122;19.932;2022-12-18T04:47:46;100109.20;;;-4.88;87.94
58919;BME280;44704;50.122;19.932;2022-12-18T04:50:13;100111.82;;;-4.87;88.13
58919;BME280;44704;50.122;19.932;2022-12-18T04:52:40;100113.41;;;-4.87;88.35
58919;BME280;44704;50.122;19.932;2022-12-18T04:55:07;100112.42;;;-4.88;87.77
58919;BME280;44704;50.122;19.932;2022-12-18T04:57:34;100116.70;;;-4.94;87.90
58919;BME280;44704;50.122;19.932;2022-12-18T05:00:01;100119.08;;;-4.98;87.91
58919;BME280;44704;50.122;19.932;2022-12-18T05:02:29;100125.48;;;-5.01;87.87
58919;BME280;44704;50.122;19.932;2022-12-18T05:04:56;100128.71;;;-5.01;87.90
58919;BME280;44704;50.122;19.932;2022-12-18T05:07:23;100129.74;;;-5.01;88.18
58919;BME280;44704;50.122;19.932;2022-12-18T05:09:50;100133.18;;;-5.02;88.01
58919;BME280;44704;50.122;19.932;2022-12-18T05:12:17;100134.07;;;-5.04;88.17
58919;BME280;44704;50.122;19.932;2022-12-18T05:14:44;100135.17;;;-5.05;88.25
58919;BME280;44704;50.122;19.932;2022-12-18T05:17:11;100139.27;;;-5.08;87.93
58919;BME280;44704;50.122;19.932;2022-12-18T05:19:38;100142.34;;;-5.09;88.00
58919;BME280;44704;50.122;19.932;2022-12-18T05:22:08;100147.66;;;-5.09;88.34
58919;BME280;44704;50.122;19.932;2022-12-18T05:24:35;100149.55;;;-5.08;88.41
58919;BME280;44704;50.122;19.932;2022-12-18T05:27:02;100147.09;;;-5.06;88.22
58919;BME280;44704;50.122;19.932;2022-12-18T05:29:29;100143.80;;;-5.04;88.18
58919;BME280;44704;50.122;19.932;2022-12-18T05:31:55;100148.76;;;-5.02;88.41
58919;BME280;44704;50.122;19.932;2022-12-18T05:34:23;100146.91;;;-5.01;88.45
58919;BME280;44704;50.122;19.932;2022-12-18T05:36:50;100147.57;;;-5.00;88.46
58919;BME280;44704;50.122;19.932;2022-12-18T05:39:17;100147.46;;;-5.01;88.45
58919;BME280;44704;50.122;19.932;2022-12-18T05:41:44;100150.80;;;-5.00;88.56
58919;BME280;44704;50.122;19.932;2022-12-18T05:44:11;100155.88;;;-5.00;88.54
58919;BME280;44704;50.122;19.932;2022-12-18T05:46:38;100159.94;;;-4.97;88.08
58919;BME280;44704;50.122;19.932;2022-12-18T05:49:07;100160.64;;;-4.97;88.24
58919;BME280;44704;50.122;19.932;2022-12-18T05:51:34;100164.02;;;-4.97;88.46
58919;BME280;44704;50.122;19.932;2022-12-18T05:54:01;100166.79;;;-4.96;88.21
58919;BME280;44704;50.122;19.932;2022-12-18T05:56:28;100174.10;;;-4.94;88.71
58919;BME280;44704;50.122;19.932;2022-12-18T05:58:55;100175.21;;;-4.92;88.62
58919;BME280;44704;50.122;19.932;2022-12-18T06:01:24;100177.40;;;-4.90;88.60
58919;BME280;44704;50.122;19.932;2022-12-18T06:03:53;100176.81;;;-4.92;88.05
58919;BME280;44704;50.122;19.932;2022-12-18T06:06:25;100183.38;;;-4.92;88.43
58919;BME280;44704;50.122;19.932;2022-12-18T06:08:54;100184.03;;;-4.91;88.17
58919;BME280;44704;50.122;19.932;2022-12-18T06:11:23;100190.51;;;-4.90;88.02
58919;BME280;44704;50.122;19.932;2022-12-18T06:13:51;100194.47;;;-4.88;88.31
58919;BME280;44704;50.122;19.932;2022-12-18T06:16:18;100200.05;;;-4.90;87.84
58919;BME280;44704;50.122;19.932;2022-12-18T06:18:45;100202.91;;;-4.90;88.25
58919;BME280;44704;50.122;19.932;2022-12-18T06:21:13;100206.80;;;-4.88;88.65
58919;BME280;44704;50.122;19.932;2022-12-18T06:23:39;100207.02;;;-4.86;88.23
58919;BME280;44704;50.122;19.932;2022-12-18T06:26:11;100210.49;;;-4.82;88.35
58919;BME280;44704;50.122;19.932;2022-12-18T06:28:38;100216.30;;;-4.79;88.41
58919;BME280;44704;50.122;19.932;2022-12-18T06:31:06;100212.40;;;-4.76;88.93
58919;BME280;44704;50.122;19.932;2022-12-18T06:33:34;100215.50;;;-4.72;88.93
58919;BME280;44704;50.122;19.932;2022-12-18T06:36:07;100220.04;;;-4.71;88.19
58919;BME280;44704;50.122;19.932;2022-12-18T06:38:36;100220.73;;;-4.68;88.38
58919;BME280;44704;50.122;19.932;2022-12-18T06:41:07;100224.98;;;-4.66;88.17
58919;BME280;44704;50.122;19.932;2022-12-18T06:43:35;100227.80;;;-4.63;88.70
58919;BME280;44704;50.122;19.932;2022-12-18T06:46:03;100231.59;;;-4.59;88.71
58919;BME280;44704;50.122;19.932;2022-12-18T06:48:31;100233.66;;;-4.58;88.03
58919;BME280;44704;50.122;19.932;2022-12-18T06:50:59;100230.84;;;-4.58;87.80
58919;BME280;44704;50.122;19.932;2022-12-18T06:53:26;100233.86;;;-4.55;88.02
58919;BME280;44704;50.122;19.932;2022-12-18T06:55:59;100236.31;;;-4.55;87.40
58919;BME280;44704;50.122;19.932;2022-12-18T06:58:27;100242.71;;;-4.55;87.49
58919;BME280;44704;50.122;19.932;2022-12-18T07:00:59;100245.68;;;-4.54;87.42
58919;BME280;44704;50.122;19.932;2022-12-18T07:03:26;100251.59;;;-4.53;87.15
58919;BME280;44704;50.122;19.932;2022-12-18T07:05:53;100257.19;;;-4.52;87.03
58919;BME280;44704;50.122;19.932;2022-12-18T07:08:20;100261.27;;;-4.49;87.25
58919;BME280;44704;50.122;19.932;2022-12-18T07:10:47;100264.48;;;-4.47;86.73
58919;BME280;44704;50.122;19.932;2022-12-18T07:13:16;100268.02;;;-4.44;86.75
58919;BME280;44704;50.122;19.932;2022-12-18T07:15:43;100267.48;;;-4.39;87.28
58919;BME280;44704;50.122;19.932;2022-12-18T07:18:10;100271.14;;;-4.33;87.17
58919;BME280;44704;50.122;19.932;2022-12-18T07:20:37;100271.56;;;-4.29;86.91
58919;BME280;44704;50.122;19.932;2022-12-18T07:23:04;100273.48;;;-4.26;86.58
58919;BME280;44704;50.122;19.932;2022-12-18T07:25:36;100280.96;;;-4.26;86.24
58919;BME280;44704;50.122;19.932;2022-12-18T07:28:04;100284.70;;;-4.26;85.83
58919;BME280;44704;50.122;19.932;2022-12-18T07:30:31;100286.26;;;-4.28;85.93
58919;BME280;44704;50.122;19.932;2022-12-18T07:32:58;100288.34;;;-4.27;85.54
58919;BME280;44704;50.122;19.932;2022-12-18T07:35:25;100300.66;;;-4.24;85.97
58919;BME280;44704;50.122;19.932;2022-12-18T07:37:52;100303.12;;;-4.23;85.30
58919;BME280;44704;50.122;19.932;2022-12-18T07:40:19;100307.56;;;-4.21;85.88
58919;BME280;44704;50.122;19.932;2022-12-18T07:42:46;100314.91;;;-4.16;85.99
58919;BME280;44704;50.122;19.932;2022-12-18T07:45:13;100315.39;;;-4.11;85.40
58919;BME280;44704;50.122;19.932;2022-12-18T07:47:40;100313.40;;;-4.08;85.04
58919;BME280;44704;50.122;19.932;2022-12-18T07:50:07;100319.29;;;-4.05;84.86
58919;BME280;44704;50.122;19.932;2022-12-18T07:52:34;100320.57;;;-4.03;85.01
58919;BME280;44704;50.122;19.932;2022-12-18T07:55:02;100320.18;;;-4.03;84.65
58919;BME280;44704;50.122;19.932;2022-12-18T07:57:29;100319.86;;;-4.03;84.70
58919;BME280;44704;50.122;19.932;2022-12-18T07:59:56;100322.09;;;-4.02;84.69
58919;BME280;44704;50.122;19.932;2022-12-18T08:02:23;100324.65;;;-3.98;84.40
58919;BME280;44704;50.122;19.932;2022-12-18T08:04:50;100323.33;;;-3.94;84.77
58919;BME280;44704;50.122;19.932;2022-12-18T08:07:17;100326.43;;;-3.88;84.44
58919;BME280;44704;50.122;19.932;2022-12-18T08:09:44;100323.17;;;-3.85;84.10
58919;BME280;44704;50.122;19.932;2022-12-18T08:12:11;100321.50;;;-3.81;84.01
58919;BME280;44704;50.122;19.932;2022-12-18T08:14:37;100328.81;;;-3.74;84.55
58919;BME280;44704;50.122;19.932;2022-12-18T08:17:04;100330.86;;;-3.67;83.93
58919;BME280;44704;50.122;19.932;2022-12-18T08:19:31;100334.24;;;-3.63;83.52
58919;BME280;44704;50.122;19.932;2022-12-18T08:21:58;100335.79;;;-3.62;83.24
58919;BME280;44704;50.122;19.932;2022-12-18T08:24:25;100338.71;;;-3.60;82.90
58919;BME280;44704;50.122;19.932;2022-12-18T08:26:52;100343.52;;;-3.63;82.29
58919;BME280;44704;50.122;19.932;2022-12-18T08:29:19;100342.11;;;-3.63;82.84
58919;BME280;44704;50.122;19.932;2022-12-18T08:31:46;100347.39;;;-3.57;82.95
58919;BME280;44704;50.122;19.932;2022-12-18T08:34:13;100345.06;;;-3.50;83.16
58919;BME280;44704;50.122;19.932;2022-12-18T08:36:40;100350.63;;;-3.45;82.39
58919;BME280;44704;50.122;19.932;2022-12-18T08:39:07;100350.30;;;-3.43;82.17
58919;BME280;44704;50.122;19.932;2022-12-18T08:41:34;100350.33;;;-3.36;82.22
58919;BME280;44704;50.122;19.932;2022-12-18T08:44:00;100347.67;;;-3.29;81.91
58919;BME280;44704;50.122;19.932;2022-12-18T08:46:46;100343.98;;;-3.17;82.50
58919;BME280;44704;50.122;19.932;2022-12-18T08:49:13;100347.41;;;-3.05;81.95
58919;BME280;44704;50.122;19.932;2022-12-18T08:51:41;100350.88;;;-3.04;81.19
58919;BME280;44704;50.122;19.932;2022-12-18T08:54:10;100353.73;;;-2.99;81.23
58919;BME280;44704;50.122;19.932;2022-12-18T08:56:38;100359.98;;;-2.97;80.92
58919;BME280;44704;50.122;19.932;2022-12-18T08:59:05;100362.27;;;-2.92;80.94
58919;BME280;44704;50.122;19.932;2022-12-18T09:01:31;100363.95;;;-2.83;81.01
58919;BME280;44704;50.122;19.932;2022-12-18T09:03:58;100360.51;;;-2.73;80.70
58919;BME280;44704;50.122;19.932;2022-12-18T09:06:25;100367.71;;;-2.62;80.78
58919;BME280;44704;50.122;19.932;2022-12-18T09:08:53;100367.35;;;-2.52;80.10
58919;BME280;44704;50.122;19.932;2022-12-18T09:11:23;100369.39;;;-2.43;80.12
58919;BME280;44704;50.122;19.932;2022-12-18T09:13:51;100369.19;;;-2.36;79.71
58919;BME280;44704;50.122;19.932;2022-12-18T09:16:18;100364.91;;;-2.26;79.90
58919;BME280;44704;50.122;19.932;2022-12-18T09:18:47;100368.64;;;-2.17;79.23
58919;BME280;44704;50.122;19.932;2022-12-18T09:21:16;100370.64;;;-2.13;78.35
58919;BME280;44704;50.122;19.932;2022-12-18T09:23:49;100371.12;;;-2.14;77.59
58919;BME280;44704;50.122;19.932;2022-12-18T09:26:17;100367.14;;;-2.16;77.26
58919;BME280;44704;50.122;19.932;2022-12-18T09:28:43;100370.27;;;-2.17;77.43
58919;BME280;44704;50.122;19.932;2022-12-18T09:31:15;100370.16;;;-2.18;77.38
58919;BME280;44704;50.122;19.932;2022-12-18T09:33:42;100369.52;;;-2.21;77.20
58919;BME280;44704;50.122;19.932;2022-12-18T09:36:11;100372.70;;;-2.16;78.10
58919;BME280;44704;50.122;19.932;2022-12-18T09:38:39;100373.02;;;-2.09;77.84
58919;BME280;44704;50.122;19.932;2022-12-18T09:42:00;100369.42;;;-1.99;77.89
58919;BME280;44704;50.122;19.932;2022-12-18T09:44:32;100372.01;;;-1.86;77.83
58919;BME280;44704;50.122;19.932;2022-12-18T09:47:11;100376.70;;;-1.73;78.08
58919;BME280;44704;50.122;19.932;2022-12-18T09:49:44;100377.77;;;-1.59;77.83
58919;BME280;44704;50.122;19.932;2022-12-18T09:52:19;100386.56;;;-1.51;77.36
58919;BME280;44704;50.122;19.932;2022-12-18T09:54:53;100382.88;;;-1.47;77.19
58919;BME280;44704;50.122;19.932;2022-12-18T09:57:23;100382.98;;;-1.46;76.66
58919;BME280;44704;50.122;19.932;2022-12-18T10:00:06;100379.60;;;-1.44;76.64
58919;BME280;44704;50.122;19.932;2022-12-18T10:02:38;100377.92;;;-1.36;76.76
58919;BME280;44704;50.122;19.932;2022-12-18T10:05:09;100377.27;;;-1.30;75.99
58919;BME280;44704;50.122;19.932;2022-12-18T10:10:46;100379.23;;;-1.17;75.76
58919;BME280;44704;50.122;19.932;2022-12-18T10:16:47;100379.30;;;-1.08;75.70
58919;BME280;44704;50.122;19.932;2022-12-18T10:22:01;100386.37;;;-1.03;74.16
58919;BME280;44704;50.122;19.932;2022-12-18T10:27:14;100390.95;;;-0.98;73.91
58919;BME280;44704;50.122;19.932;2022-12-18T10:29:43;100387.52;;;-0.84;74.12
58919;BME280;44704;50.122;19.932;2022-12-18T10:32:16;100381.24;;;-0.70;73.74
58919;BME280;44704;50.122;19.932;2022-12-18T10:34:48;100376.04;;;-0.74;72.66
58919;BME280;44704;50.122;19.932;2022-12-18T10:37:21;100370.06;;;-0.80;72.71
58919;BME280;44704;50.122;19.932;2022-12-18T10:40:09;100359.36;;;-0.71;72.97
58919;BME280;44704;50.122;19.932;2022-12-18T10:42:37;100366.94;;;-0.59;72.28
58919;BME280;44704;50.122;19.932;2022-12-18T10:45:13;100367.03;;;-0.62;72.04
58919;BME280;44704;50.122;19.932;2022-12-18T10:47:50;100365.48;;;-0.69;71.77
58919;BME280;44704;50.122;19.932;2022-12-18T10:50:33;100363.80;;;-0.82;71.03
58919;BME280;44704;50.122;19.932;2022-12-18T10:53:02;100366.39;;;-0.96;70.87
58919;BME280;44704;50.122;19.932;2022-12-18T10:55:36;100365.27;;;-1.02;71.21
58919;BME280;44704;50.122;19.932;2022-12-18T10:58:34;100360.58;;;-1.02;70.89
58919;BME280;44704;50.122;19.932;2022-12-18T11:03:32;100352.86;;;-1.01;70.96
58919;BME280;44704;50.122;19.932;2022-12-18T11:08:31;100349.90;;;-0.95;70.10
58919;BME280;44704;50.122;19.932;2022-12-18T11:10:58;100352.48;;;-0.83;69.97
58919;BME280;44704;50.122;19.932;2022-12-18T11:13:28;100348.11;;;-0.73;69.13
58919;BME280;44704;50.122;19.932;2022-12-18T11:15:56;100343.80;;;-0.68;68.81
58919;BME280;44704;50.122;19.932;2022-12-18T11:18:31;100340.83;;;-0.56;69.15
58919;BME280;44704;50.122;19.932;2022-12-18T11:21:09;100336.69;;;-0.40;68.93
58919;BME280;44704;50.122;19.932;2022-12-18T11:23:54;100335.97;;;-0.25;68.62
58919;BME280;44704;50.122;19.932;2022-12-18T11:26:33;100330.77;;;-0.16;68.07
58919;BME280;44704;50.122;19.932;2022-12-18T11:29:10;100329.23;;;-0.02;68.24
58919;BME280;44704;50.122;19.932;2022-12-18T11:31:37;100334.15;;;-0.01;66.99
58919;BME280;44704;50.122;19.932;2022-12-18T11:34:10;100329.55;;;-0.13;66.83
58919;BME280;44704;50.122;19.932;2022-12-18T11:36:45;100332.52;;;-0.27;66.61
58919;BME280;44704;50.122;19.932;2022-12-18T11:39:35;100331.30;;;-0.48;65.95
58919;BME280;44704;50.122;19.932;2022-12-18T11:42:24;100338.35;;;-0.78;66.46
58919;BME280;44704;50.122;19.932;2022-12-18T11:44:58;100340.24;;;-0.99;66.86
58919;BME280;44704;50.122;19.932;2022-12-18T11:47:38;100342.56;;;-1.17;66.98
58919;BME280;44704;50.122;19.932;2022-12-18T11:50:17;100347.11;;;-1.43;66.96
58919;BME280;44704;50.122;19.932;2022-12-18T11:52:45;100349.33;;;-1.66;67.83
58919;BME280;44704;50.122;19.932;2022-12-18T11:55:28;100349.83;;;-1.76;68.18
58919;BME280;44704;50.122;19.932;2022-12-18T12:00:35;100342.17;;;-1.80;68.97
58919;BME280;44704;50.122;19.932;2022-12-18T12:03:20;100345.42;;;-1.81;69.05
58919;BME280;44704;50.122;19.932;2022-12-18T12:25:04;100349.80;;;-1.57;69.01
58919;BME280;44704;50.122;19.932;2022-12-18T12:33:59;100355.90;;;-1.66;69.19
58919;BME280;44704;50.122;19.932;2022-12-18T12:39:10;100367.39;;;-1.75;69.22
58919;BME280;44704;50.122;19.932;2022-12-18T12:41:41;100369.02;;;-1.75;69.32
58919;BME280;44704;50.122;19.932;2022-12-18T12:44:32;100376.02;;;-1.80;68.94
58919;BME280;44704;50.122;19.932;2022-12-18T12:47:10;100380.09;;;-1.83;69.41
58919;BME280;44704;50.122;19.932;2022-12-18T12:49:39;100378.98;;;-1.77;69.89
58919;BME280;44704;50.122;19.932;2022-12-18T12:52:12;100383.23;;;-1.77;69.58
58919;BME280;44704;50.122;19.932;2022-12-18T12:54:41;100385.77;;;-1.70;69.87
58919;BME280;44704;50.122;19.932;2022-12-18T12:57:39;100385.87;;;-1.62;69.83
58919;BME280;44704;50.122;19.932;2022-12-18T13:00:16;100388.05;;;-1.54;69.56
58919;BME280;44704;50.122;19.932;2022-12-18T13:08:03;100399.92;;;-1.53;69.22
58919;BME280;44704;50.122;19.932;2022-12-18T13:20:39;100399.83;;;-1.63;69.21
58919;BME280;44704;50.122;19.932;2022-12-18T13:23:26;100401.52;;;-1.65;69.11
58919;BME280;44704;50.122;19.932;2022-12-18T13:33:45;100414.58;;;-1.98;69.58
58919;BME280;44704;50.122;19.932;2022-12-18T13:36:26;100413.11;;;-2.05;69.24
58919;BME280;44704;50.122;19.932;2022-12-18T13:41:47;100416.36;;;-2.25;69.65
58919;BME280;44704;50.122;19.932;2022-12-18T13:44:38;100426.94;;;-2.38;69.50
58919;BME280;44704;50.122;19.932;2022-12-18T13:49:56;100441.63;;;-2.71;70.13
58919;BME280;44704;50.122;19.932;2022-12-18T13:52:35;100440.87;;;-2.85;70.37
58919;BME280;44704;50.122;19.932;2022-12-18T13:55:10;100445.25;;;-2.99;70.63
58919;BME280;44704;50.122;19.932;2022-12-18T13:57:41;100447.95;;;-3.15;70.89
58919;BME280;44704;50.122;19.932;2022-12-18T14:02:51;100446.34;;;-3.46;71.19
58919;BME280;44704;50.122;19.932;2022-12-18T14:05:29;100447.02;;;-3.61;71.58
58919;BME280;44704;50.122;19.932;2022-12-18T14:08:08;100452.89;;;-3.77;72.04
58919;BME280;44704;50.122;19.932;2022-12-18T14:10:43;100453.57;;;-3.95;71.80
58919;BME280;44704;50.122;19.932;2022-12-18T14:13:19;100457.73;;;-4.12;72.79
58919;BME280;44704;50.122;19.932;2022-12-18T14:15:48;100458.37;;;-4.27;73.15
58919;BME280;44704;50.122;19.932;2022-12-18T14:18:27;100459.41;;;-4.40;72.89
58919;BME280;44704;50.122;19.932;2022-12-18T14:21:00;100464.45;;;-4.56;73.40
58919;BME280;44704;50.122;19.932;2022-12-18T14:23:31;100467.39;;;-4.68;73.58
58919;BME280;44704;50.122;19.932;2022-12-18T14:25:59;100465.55;;;-4.81;73.33
58919;BME280;44704;50.122;19.932;2022-12-18T14:28:27;100471.60;;;-4.96;73.77
58919;BME280;44704;50.122;19.932;2022-12-18T14:30:54;100469.52;;;-5.11;73.90
58919;BME280;44704;50.122;19.932;2022-12-18T14:33:27;100466.05;;;-5.29;74.11
58919;BME280;44704;50.122;19.932;2022-12-18T14:36:02;100467.81;;;-5.47;74.53
58919;BME280;44704;50.122;19.932;2022-12-18T14:38:37;100471.09;;;-5.66;74.17
58919;BME280;44704;50.122;19.932;2022-12-18T14:41:10;100478.10;;;-5.83;74.68
58919;BME280;44704;50.122;19.932;2022-12-18T14:43:40;100482.55;;;-6.01;75.38
58919;BME280;44704;50.122;19.932;2022-12-18T14:49:04;100481.27;;;-6.32;76.24
58919;BME280;44704;50.122;19.932;2022-12-18T14:51:47;100485.89;;;-6.44;76.50
58919;BME280;44704;50.122;19.932;2022-12-18T14:54:17;100498.41;;;-6.57;76.78
58919;BME280;44704;50.122;19.932;2022-12-18T14:56:52;100499.34;;;-6.67;77.21
58919;BME280;44704;50.122;19.932;2022-12-18T14:59:23;100496.49;;;-6.77;77.66